2009 Road Runner Classic 8K

back to results

Jul. 25, 2009

2009 Road Runner Classic 8K
Maybury State Park, Northville, MI
Provided by Everal Race Management




Overall Female Overall Winners



Place Name City Bib No Age Overall Time Pace
1 Cherie Salmeto Pinckney MI 203 39 17 32:19.0 6:30/M


Overall Male Overall Winners



Place Name City Bib No Age Overall Time Pace
1 Kevin Debear Detroit MI 200 19 1 27:05.4 5:27/M


Overall Female Masters Winners



Place Name City Bib No Age Overall Time Pace
1 Cathy Young Allen TX 314 42 51 36:27.5 7:20/M


Overall Male Masters Winners



Place Name City Bib No Age Overall Time Pace
1 John Tarkowski Northville MI 3 56 8 30:32.1 6:09/M


Female 15 & under



Place Name City Bib No Age Overall Time Pace
1 Gina McNamara Northville MI 330 14 56 36:48.8 7:24/M
2 Sydney Anderson Livonia MI 237 14 61 36:59.3 7:26/M
3 Rachel Coleman Northville MI 177 13 83 39:24.6 7:56/M
4 Sophie Roberts Canton MI 30 15 85 39:37.1 7:58/M
5 Sara Dedona Northville MI 89 15 102 41:13.0 8:18/M
6 Zoe Jenkins Novi MI 129 15 117 42:28.3 8:33/M
7 Megan Eekhoff Dexter MI 334 15 167 47:44.1 9:36/M
8 Jemima McCluskey Canton MI 211 14 182 49:31.0 9:58/M
9 Millie Smith Farmington Hills M 151 12 249 1:08:19.6 13:45/M


Male 15 & under



Place Name City Bib No Age Overall Time Pace
1 Jason Lerner Northville MI 158 15 7 30:20.4 6:06/M
2 Josh Joy Canton MI 219 13 37 34:56.7 7:02/M
3 Alex Thomas Howell MI 64 15 50 36:26.2 7:20/M
4 Liam Cardenas Canton MI 265 13 62 37:05.5 7:28/M
5 Henry Leto Grosse Pointe MI 174 12 72 38:19.6 7:43/M
6 Sean Coleman Northville MI 176 11 84 39:26.2 7:56/M
7 Joseph Kosinski Farmington Hills M 188 0 105 41:21.1 8:19/M
8 Michael Higgins Novi MI 302 13 111 41:43.0 8:24/M
9 Gregory Conner West Bloomfield MI 348 12 194 51:36.0 10:23/M
10 Douglas Tischler Novi MI 274 9 225 58:53.2 11:51/M
11 Vasili Zestos Northville MI 169 9 244 1:05:01.3 13:05/M


Female 16 to 19



Place Name City Bib No Age Overall Time Pace
1 Julia Schroeder Livonia MI 333 18 32 34:24.1 6:55/M


Male 16 to 19



Place Name City Bib No Age Overall Time Pace
1 Alex Townsend Farmington MI 281 19 3 28:53.8 5:49/M
2 David Cogswell Ann Arbor MI 132 19 4 29:16.9 5:53/M
3 Jason Smith Detroit MI 201 18 5 29:47.5 6:00/M
4 Kevin Lerner Northville MI 159 17 6 30:20.1 6:06/M
5 Austin Jones Westland MI 209 16 9 30:43.9 6:11/M
6 Bennett Prudahomme Ann Arbor MI 144 19 10 31:03.9 6:15/M
7 Alex Noble Plymouth MI 53 19 11 31:30.3 6:20/M
8 Steve Pravato Novi MI 194 16 14 31:56.5 6:26/M
9 Zachary Anderson Livonia MI 238 17 25 33:44.8 6:47/M
10 Edward Tremel Livonia MI 191 18 30 34:08.4 6:52/M
11 Patrick Tremel Livonia MI 192 16 41 35:13.8 7:05/M
12 Andrew Phillips Plymouth MI 102 16 74 38:42.6 7:47/M
13 Kevin Wang Franklin MI 60 16 93 40:11.0 8:05/M
14 Cameron Sumner Livonia MI 182 16 118 42:29.0 8:33/M
15 Dylan Noble Plymouth MI 54 16 142 44:53.6 9:02/M
16 Bryan Canner West Bloomfield MI 347 16 255 1:12:40.3 14:37/M


Female 20 to 29



Place Name City Bib No Age Overall Time Pace
1 Kayla Duke Linden MI 312 20 59 36:54.6 7:25/M
2 Natalie Grzywacz Dearborn MI 165 29 106 41:21.7 8:19/M
3 Allison Ridley Ypsilanti MI 166 21 115 42:15.2 8:30/M
4 Tiffany Stoddard Ann Arbor MI 141 20 123 42:47.1 8:36/M
5 Vanessa Myers Clarkston MI 86 29 140 44:38.0 8:59/M
6 Karry Brook St. Claire Shores 186 29 145 45:03.4 9:04/M
7 Katie Boyer Ann Arbor MI 142 28 151 45:32.8 9:10/M
8 Melissa Leannais Whitmore Lake MI 133 28 152 45:42.5 9:12/M
9 Kelli Surma Novi MI 118 29 174 48:24.4 9:44/M
10 Nicole Geverink Westland MI 25 26 184 49:50.4 10:02/M
11 Beth Lacasse Plymouth MI 152 29 189 51:00.0 10:16/M
12 Katie Plasecki Shelby Twp MI 226 27 195 51:37.2 10:23/M
13 Kami Zuercher Canton MI 70 28 205 53:42.8 10:48/M
14 Lisa Larabell Redford MI 321 24 208 54:24.1 10:57/M
15 Amber Hartley Chesterfield MI 15 29 210 54:44.5 11:01/M
16 Mona Ramlawi Plymouth MI 117 26 215 55:59.0 11:16/M


Male 20 to 29



Place Name City Bib No Age Overall Time Pace
1 Andrew Porinsky Dexter MI 345 24 2 28:00.3 5:38/M
2 Ben Lalani Farmington MI 228 24 22 33:04.6 6:39/M
3 Jeffrey Brandt Plymouth MI 303 23 26 33:52.6 6:49/M
4 Jason Gallinat Saline MI 204 27 34 34:33.0 6:57/M
5 Ron Senakiewich Royal Oak MI 147 28 53 36:35.5 7:22/M
6 Kendra Damphousse Livonia MI 72 22 57 36:51.5 7:25/M
7 Gordon Garrity Dearborn MI 198 23 58 36:53.1 7:25/M
8 Robert Painter Flat Rock MI 138 22 60 36:56.1 7:26/M
9 Mills McIlroy Ann Arbor MI 332 20 64 37:15.6 7:30/M
10 Nicholas Hartley Chesterfield MI 14 28 95 40:14.7 8:06/M
11 John Braaksma Plymouth MI 287 27 114 42:07.1 8:28/M
12 Chris Ulrey Commerce Township 208 28 150 45:30.0 9:09/M


Female 30 to 39



Place Name City Bib No Age Overall Time Pace
1 Angela Justice Canton MI 196 31 35 34:38.9 6:58/M
2 Leslie Handyside Northville MI 283 34 70 38:07.4 7:40/M
3 Frances Laird Sterling Heights M 225 35 90 40:00.6 8:03/M
4 Shannon Laurie Howell MI 178 34 98 40:29.4 8:09/M
5 Kathleen Landelius Plymouth MI 79 32 108 41:22.8 8:19/M
6 Adrienne Dresevic Northville MI 262 37 112 41:48.4 8:25/M
7 Abby Pendleton Northville MI 261 37 116 42:16.6 8:30/M
8 Kimberly Bedigian Plymouth MI 354 39 127 43:08.3 8:41/M
9 Michelle Coakley Northville MI 167 35 131 43:32.3 8:46/M
10 Rebecca Shelby Dearborn MI 50 32 141 44:41.0 8:59/M
11 Karen Gresens Novi MI 103 37 148 45:11.2 9:05/M
12 Kari Smith Northville MI 245 39 157 46:10.7 9:17/M
13 Jenny Lendrum Plymouth MI 157 34 159 46:26.3 9:21/M
14 Marnie Riling Ypsilanti MI 106 35 168 47:58.1 9:39/M
15 Denise Dashner Temperance MI 23 39 178 49:02.0 9:52/M
16 Laura Kaman Canton MI 77 39 183 49:40.7 10:00/M
17 Lynda Parson Ypsilanti MI 212 37 187 50:45.1 10:13/M
18 Beverly McCulley Livonia MI 98 32 191 51:12.8 10:18/M
19 Shelley Kelly Livonia MI 8 36 192 51:25.8 10:21/M
20 Christy Seale Plymouth MI 267 32 193 51:26.4 10:21/M
21 Britney Stieber Plymouth MI 80 37 196 52:00.7 10:28/M
22 Kris Meyer Brighton MI 57 33 200 52:43.9 10:36/M
23 Anna Mixell Plymouth MI 250 35 201 52:50.5 10:38/M
24 Christy Thaxton Northville MI 306 37 204 53:38.2 10:47/M
25 Vanessa Wasko Novi MI 276 36 206 53:46.5 10:49/M
26 Robyn Olson Livonia MI 39 35 207 54:00.0 10:52/M
27 Claire Sheldon Livonia MI 249 33 209 54:26.0 10:57/M
28 Tia Kollar New Hudson MI 12 32 212 55:09.7 11:06/M
29 Angela Sohn Lincoln Park MI 339 32 213 55:30.1 11:10/M
30 Kristen Stippich Northville MI 290 30 233 1:02:34.8 12:35/M
31 Tammy Bauer Ann Arbor MI 58 32 235 1:02:45.9 12:38/M
32 Heather Keaveny Harrison Township 340 35 236 1:02:47.8 12:38/M
33 Tracey Parry Novi MI 243 35 238 1:02:49.7 12:38/M
34 Courtney Conover Wayne MI 344 32 239 1:02:50.7 12:39/M
35 Dorothy Salas Novi MI 125 32 240 1:04:10.7 12:55/M
36 Kimberly Wilk Northville MI 82 35 246 1:05:14.7 13:08/M
37 Tracey Gerus Canton MI 229 36 248 1:08:12.6 13:43/M
38 Laurie Leskovitz Farmington Hills M 150 39 250 1:08:24.6 13:46/M


Male 30 to 39



Place Name City Bib No Age Overall Time Pace
1 Kevin Florey Northville MI 337 39 15 32:08.3 6:28/M
2 Daniel Saunders Riverview MI 135 30 16 32:09.9 6:28/M
3 Darren Ehgotz Belleville MI 160 38 20 32:56.5 6:38/M
4 Dan McGuire Canton MI 73 33 23 33:05.7 6:39/M
5 Jeremy Hallum Ann Arbor MI 244 35 29 34:07.1 6:52/M
6 Charles Lacasse Plymouth MI 183 31 33 34:32.5 6:57/M
7 Bill Cardenas Canton MI 260 38 39 35:05.1 7:04/M
8 Roy Laird Sterling Heights M 227 32 45 35:36.7 7:10/M
9 Tim McNulty Petersburg IL 119 33 47 35:51.1 7:13/M
10 John Laird Ferndale MI 224 32 49 36:24.0 7:19/M
11 Todd Kearney Northville MI 126 35 52 36:31.7 7:21/M
12 Matthew Defore Northville MI 31 37 65 37:17.2 7:30/M
13 Timothy Carmody Plymouth MI 100 31 66 37:22.1 7:31/M
14 Aaron Updegrove Northville MI 96 38 73 38:20.1 7:43/M
15 Greg Kerr Northville MI 322 37 76 38:54.1 7:50/M
16 Craig Rogers Plymouth MI 248 38 77 38:55.5 7:50/M
17 Kip Kimball Canton MI 187 32 78 39:02.9 7:51/M
18 David Christensen Canton MI 28 38 79 39:03.4 7:51/M
19 Matthew Dalebout Canton MI 335 31 80 39:05.3 7:52/M
20 Thomas Samataro MacOmb MI 10 30 81 39:06.7 7:52/M
21 George Stratman Royal Oak MI 146 36 86 39:46.1 8:00/M
22 Manuel Barberena Plymouth MI 41 37 87 39:46.7 8:00/M
23 Edward Stieber Plymouth MI 81 37 89 39:59.1 8:03/M
24 Sean Williams Ypsilanti MI 115 32 104 41:17.9 8:18/M
25 Jeff Bishop Pinckney MI 199 37 107 41:22.2 8:19/M
26 Michael Gurchak Northville MI 97 32 113 41:49.6 8:25/M
27 Chad Doorlag Hartland MI 352 35 119 42:35.3 8:34/M
28 Scott Youngberg South Lyon MI 163 34 132 43:48.0 8:49/M
29 Dan McCulley Livonia MI 99 34 134 44:01.1 8:51/M
30 Kosuke Ishikawa Novi MI 11 32 135 44:09.3 8:53/M
31 Daniel Keaveny Harrison Township 342 38 149 45:21.9 9:07/M
32 Eric Justice Canton MI 197 35 153 45:49.0 9:13/M
33 Chad Parson Ypsilanti MI 213 33 154 45:49.3 9:13/M
34 Timothy McCarthy Clarkston MI 134 37 156 45:58.4 9:15/M
35 Chuck Chandler West Bloomfield MI 272 35 158 46:13.7 9:18/M
36 Vic Avram Canton MI 85 36 164 46:41.0 9:24/M
37 Andrew Smock Canton MI 71 31 165 46:45.1 9:24/M
38 Jared Hopkins Ann Arbor MI 355 35 166 46:47.7 9:25/M
39 Chad Cooper Brighton MI 101 36 197 52:08.5 10:29/M
40 Steve Wasko Novi MI 275 37 198 52:08.9 10:29/M
41 Michael Williams Novi MI 291 35 199 52:33.6 10:34/M
42 Mark Bennetts Redford MI 323 35 216 56:19.1 11:20/M
43 Ryan Geverink Westland MI 24 31 224 58:00.1 11:40/M


Female 40 to 49



Place Name City Bib No Age Overall Time Pace
1 Jane Dyson Northville MI 55 43 94 40:11.7 8:05/M
2 Ann Savonen Carleton MI 111 48 103 41:13.4 8:18/M
3 Susan Harris Ann Arbor MI 319 44 121 42:41.3 8:35/M
4 Melissa Renko Trenton MI 184 42 126 43:03.2 8:40/M
5 Janet Hunnius South Lyon MI 120 47 128 43:09.9 8:41/M
6 Trude Noble Plymouth MI 52 46 133 43:55.2 8:50/M
7 Jackie McNamara Northville MI 329 45 139 44:33.4 8:58/M
8 Celeste Tremel Livonia MI 190 46 144 45:01.4 9:03/M
9 Sherri Dziadzio Dearborn MI 298 43 147 45:10.5 9:05/M
10 Kim Mesler Livonia MI 351 42 162 46:29.6 9:21/M
11 Dannille Smith Ann Arbor MI 114 41 170 48:00.4 9:39/M
12 Terri Mezel Howell MI 336 44 175 48:30.2 9:46/M
13 Jennifer Kraus Canton MI 94 41 179 49:03.5 9:52/M
14 Paula Leto Grosse Pointe MI 172 44 181 49:17.3 9:55/M
15 Renee Olson Canton MI 109 48 203 53:26.4 10:45/M
16 Gail Lafayette Canton MI 95 49 217 56:31.3 11:22/M
17 Jacqueline Brown Washington MI 145 44 219 56:58.7 11:28/M
18 Theresa Rosenbrook Swartz Creek MI 65 42 221 57:30.7 11:34/M
19 Cathie McKay Fenton MI 47 46 222 57:40.5 11:36/M
20 Julie Madden Northville MI 1 48 227 59:42.8 12:01/M
21 Lois Davidson Livonia MI 87 46 228 59:46.5 12:02/M
22 Karen Sanders Farmington Hills M 56 46 229 59:46.9 12:02/M
23 Nickie Bateson Novi MI 148 45 230 1:01:03.9 12:17/M
24 Valerie Feldscher Canton MI 230 46 232 1:01:12.3 12:19/M
25 Maria Zestos Northville MI 170 47 245 1:05:03.5 13:05/M
26 Dana Wehrly Brighton MI 310 47 247 1:07:35.7 13:36/M
27 Trish Breslin Brighton MI 277 42 257 1:12:41.4 14:37/M


Male 40 to 49



Place Name City Bib No Age Overall Time Pace
1 Joe Leto Grosse Pointe MI 173 45 13 31:42.8 6:23/M
2 David Adkins Livonia MI 252 42 18 32:21.4 6:31/M
3 Shawn Wehrly Royal Oak MI 324 40 19 32:55.5 6:37/M
4 Ioan Froman Dearborn MI 282 48 21 32:58.0 6:38/M
5 Brian Dziadzio Dearborn MI 297 43 27 33:54.6 6:49/M
6 Scott Craig Northville MI 112 43 28 33:56.3 6:50/M
7 Steven Johnson Novi MI 195 44 31 34:17.9 6:54/M
8 Todd Fagerman Plymouth MI 223 42 36 34:41.1 6:59/M
9 Glenn Burke Northville MI 123 44 38 34:59.0 7:02/M
10 Mark Viergutz Canton MI 74 40 43 35:22.1 7:07/M
11 Carl Jenkins Novi MI 128 42 44 35:25.0 7:08/M
12 Mark Tremel Livonia MI 189 49 46 35:39.2 7:10/M
13 Pat Campbell Brighton MI 27 43 48 36:10.3 7:17/M
14 Rob French Dexter MI 116 47 54 36:37.1 7:22/M
15 Phil Noble Plymouth MI 51 48 55 36:42.3 7:23/M
16 Sean Paraventi 218 42 63 37:10.0 7:29/M
17 John Dennis Novi MI 255 44 67 37:29.2 7:33/M
18 Robert Nenciarini Livonia MI 34 49 69 37:49.7 7:37/M
19 Joseph Rocco Northville MI 353 49 71 38:08.3 7:40/M
20 Roy Gomizawa West Bloomfield MI 313 46 75 38:52.1 7:49/M
21 Larry Salmeto Pinckney MI 202 43 82 39:10.2 7:53/M
22 Tony Farr Dearborn Hts MI 140 45 91 40:05.0 8:04/M
23 Michael Toth-Purcell Brighton MI 124 44 92 40:07.7 8:04/M
24 Linc Wehrly Brighton MI 308 47 96 40:17.5 8:06/M
25 Gary Morgan Clarkston MI 233 49 97 40:23.7 8:08/M
26 Benjamin Beale Northville MI 2 49 99 40:40.5 8:11/M
27 Greg Ritchie Novi MI 338 43 100 41:00.1 8:15/M
28 Paul Roberts Canton MI 29 42 109 41:24.2 8:20/M
29 Douglas Dziadzio Fenton MI 316 46 110 41:34.2 8:22/M
30 Dan Sepanik Northville MI 271 40 129 43:22.0 8:44/M
31 Drake Stallions South Lyon MI 349 41 136 44:14.2 8:54/M
32 Matt Jorgensen Northville MI 9 43 146 45:04.5 9:04/M
33 Steve Heuwagen Canton MI 171 40 155 45:51.5 9:14/M
34 Chris McClain Livonia MI 350 46 163 46:30.1 9:21/M
35 Dave Berkey Canton MI 90 46 169 47:59.8 9:39/M
36 Kevin Renko Trenton MI 185 43 171 48:01.7 9:40/M
37 David Zacks Ann Arbor MI 318 40 172 48:09.7 9:41/M
38 Kurt Riling Ypsilanti MI 107 41 185 50:12.8 10:06/M
39 John Lubig Livonia MI 217 44 186 50:43.0 10:12/M
40 Ralph McKay Fenton MI 46 48 188 50:56.4 10:15/M
41 Brian Mullaly Brighton MI 236 48 202 53:25.1 10:45/M
42 David Tischler Novi MI 273 42 226 58:53.6 11:51/M
43 Doug Bateson Novi MI 149 48 231 1:01:04.3 12:17/M
44 Jim Messineo Livonia MI 108 43 237 1:02:48.8 12:38/M


Female 50 to 59



Place Name City Bib No Age Overall Time Pace
1 Susan Barna Livonia MI 122 56 124 42:52.4 8:38/M
2 Joanne Gray Waterford MI 62 51 177 48:32.3 9:46/M
3 Jill Stevenson Northville MI 153 53 218 56:48.7 11:26/M
4 Barbara West Northville MI 317 54 241 1:04:16.6 12:56/M
5 Elaine Billes West Bloomfield MI 346 51 242 1:04:17.4 12:56/M
6 Cindy Derosa Commerce Township 326 50 243 1:04:18.6 12:56/M
7 Janice Schlitters Brighton MI 127 52 252 1:12:21.2 14:33/M
8 Joann Jeromin Detroit MI 6 54 253 1:12:32.1 14:36/M
9 Judith Lipa Canton MI 7 58 254 1:12:32.5 14:36/M
10 Margie Andrews Brighton MI 285 54 256 1:12:40.8 14:37/M
11 Orvetta Brown Westland MI 45 57 258 1:21:56.1 16:29/M


Male 50 to 59



Place Name City Bib No Age Overall Time Pace
1 Phil French Howell MI 19 52 12 31:32.5 6:21/M
2 Kevin Kidd Northville MI 5 55 24 33:07.1 6:40/M
3 Rick Neubert Saline MI 105 52 40 35:10.4 7:05/M
4 Gim Fitt Linden MI 307 51 42 35:14.3 7:05/M
5 Michael Mester Plymouth MI 88 53 68 37:45.8 7:36/M
6 Keith Wright Farmington Hills M 164 59 101 41:12.3 8:17/M
7 Hank Sullivan Northville MI 83 52 125 42:57.7 8:39/M
8 Greg Pravato Novi MI 193 53 130 43:23.4 8:44/M
9 Dave Thomas Northville MI 20 51 137 44:17.7 8:55/M
10 Gregory McVay Mount Clemens MI 341 54 138 44:21.1 8:55/M
11 Len Constantine Chesterfield MI 216 56 143 44:54.5 9:02/M
12 Ron Smith Novi MI 231 55 160 46:27.6 9:21/M
13 Robert Stevenson Northville MI 154 53 161 46:28.0 9:21/M
14 Ted Gray Waterford MI 61 59 176 48:31.5 9:46/M
15 Domingo Valadez Temperance MI 22 50 180 49:07.5 9:53/M
16 Mike Coates Davison MI 206 58 190 51:01.7 10:16/M
17 Dallas Ahrens Plymouth MI 343 57 214 55:32.2 11:10/M
18 Hilory Earley Livonia MI 251 58 220 57:29.4 11:34/M
19 Morgan Lapan Ann Arbor MI 48 50 259 1:33:46.8 18:52/M


Male 60 to 69



Place Name City Bib No Age Overall Time Pace
1 Henry Osier Attica MI 234 60 88 39:58.1 8:02/M
2 Brad Behrman Plymouth MI 235 62 120 42:37.9 8:34/M
3 Larry Duggan Northville MI 4 67 122 42:43.8 8:36/M
4 Marlin Shory Wauseon OH 315 61 234 1:02:43.9 12:37/M
5 Stuart Pollack Northville MI 76 66 251 1:09:04.5 13:54/M


Male 70 & up



Place Name City Bib No Age Overall Time Pace
1 Larry Mishler Plymouth MI 78 72 173 48:14.8 9:42/M
2 Ralph Judd Southfield MI 137 71 211 54:51.7 11:02/M
3 Bob Ranta South Lyon MI 175 77 223 57:54.7 11:39/M




Maybury State Park, Northville, MI
Provided by Everal Race Management